sensor_id;sensor_type;location;lat;lon;timestamp;P1;durP1;ratioP1;P2;durP2;ratioP2
72951;SDS011;61102;51.956;5.878;2022-12-29T00:00:05;4.95;;;1.40;;
72951;SDS011;61102;51.956;5.878;2022-12-29T00:02:38;5.05;;;1.40;;
72951;SDS011;61102;51.956;5.878;2022-12-29T00:05:05;5.15;;;1.40;;
72951;SDS011;61102;51.956;5.878;2022-12-29T00:07:33;4.43;;;1.48;;
72951;SDS011;61102;51.956;5.878;2022-12-29T00:10:03;4.25;;;1.35;;
72951;SDS011;61102;51.956;5.878;2022-12-29T00:12:30;3.90;;;1.27;;
72951;SDS011;61102;51.956;5.878;2022-12-29T00:15:16;6.93;;;1.40;;
72951;SDS011;61102;51.956;5.878;2022-12-29T00:18:01;5.93;;;1.50;;
72951;SDS011;61102;51.956;5.878;2022-12-29T00:20:27;5.45;;;1.52;;
72951;SDS011;61102;51.956;5.878;2022-12-29T00:23:12;4.22;;;1.35;;
72951;SDS011;61102;51.956;5.878;2022-12-29T00:25:57;4.10;;;1.27;;
72951;SDS011;61102;51.956;5.878;2022-12-29T00:28:42;2.67;;;1.00;;
72951;SDS011;61102;51.956;5.878;2022-12-29T00:31:27;4.25;;;1.38;;
72951;SDS011;61102;51.956;5.878;2022-12-29T00:34:12;4.32;;;1.30;;
72951;SDS011;61102;51.956;5.878;2022-12-29T00:36:56;5.82;;;1.45;;
72951;SDS011;61102;51.956;5.878;2022-12-29T00:39:23;4.00;;;1.30;;
72951;SDS011;61102;51.956;5.878;2022-12-29T00:42:08;3.80;;;1.27;;
72951;SDS011;61102;51.956;5.878;2022-12-29T00:45:04;5.22;;;1.30;;
72951;SDS011;61102;51.956;5.878;2022-12-29T00:47:31;5.03;;;1.40;;
72951;SDS011;61102;51.956;5.878;2022-12-29T00:49:57;3.30;;;1.10;;
72951;SDS011;61102;51.956;5.878;2022-12-29T00:52:23;1.77;;;0.73;;
72951;SDS011;61102;51.956;5.878;2022-12-29T00:54:50;4.20;;;1.20;;
72951;SDS011;61102;51.956;5.878;2022-12-29T00:57:16;5.18;;;1.23;;
72951;SDS011;61102;51.956;5.878;2022-12-29T01:02:10;2.72;;;0.90;;
72951;SDS011;61102;51.956;5.878;2022-12-29T01:04:37;4.28;;;0.93;;
72951;SDS011;61102;51.956;5.878;2022-12-29T01:07:03;4.95;;;1.10;;
72951;SDS011;61102;51.956;5.878;2022-12-29T01:09:31;2.67;;;0.80;;
72951;SDS011;61102;51.956;5.878;2022-12-29T01:12:16;2.22;;;0.70;;
72951;SDS011;61102;51.956;5.878;2022-12-29T01:14:42;2.92;;;0.80;;
72951;SDS011;61102;51.956;5.878;2022-12-29T01:17:08;2.20;;;0.63;;
72951;SDS011;61102;51.956;5.878;2022-12-29T01:19:35;3.90;;;0.95;;
72951;SDS011;61102;51.956;5.878;2022-12-29T01:22:01;3.40;;;0.80;;
72951;SDS011;61102;51.956;5.878;2022-12-29T01:24:28;3.33;;;0.60;;
72951;SDS011;61102;51.956;5.878;2022-12-29T01:26:54;3.08;;;0.60;;
72951;SDS011;61102;51.956;5.878;2022-12-29T01:29:20;1.83;;;0.68;;
72951;SDS011;61102;51.956;5.878;2022-12-29T01:31:47;1.83;;;0.60;;
72951;SDS011;61102;51.956;5.878;2022-12-29T01:34:15;1.73;;;0.50;;
72951;SDS011;61102;51.956;5.878;2022-12-29T01:36:41;2.90;;;0.60;;
72951;SDS011;61102;51.956;5.878;2022-12-29T01:39:07;2.80;;;0.60;;
72951;SDS011;61102;51.956;5.878;2022-12-29T01:41:33;2.40;;;0.52;;
72951;SDS011;61102;51.956;5.878;2022-12-29T01:44:00;3.33;;;0.70;;
72951;SDS011;61102;51.956;5.878;2022-12-29T01:49:16;4.40;;;0.70;;
72951;SDS011;61102;51.956;5.878;2022-12-29T01:51:48;2.20;;;0.68;;
72951;SDS011;61102;51.956;5.878;2022-12-29T01:54:26;1.88;;;0.60;;
72951;SDS011;61102;51.956;5.878;2022-12-29T01:56:57;2.22;;;0.60;;
72951;SDS011;61102;51.956;5.878;2022-12-29T01:59:33;2.78;;;0.80;;
72951;SDS011;61102;51.956;5.878;2022-12-29T02:02:02;3.75;;;1.00;;
72951;SDS011;61102;51.956;5.878;2022-12-29T02:04:29;3.13;;;0.80;;
72951;SDS011;61102;51.956;5.878;2022-12-29T02:07:05;1.83;;;0.60;;
72951;SDS011;61102;51.956;5.878;2022-12-29T02:09:35;2.80;;;0.80;;
72951;SDS011;61102;51.956;5.878;2022-12-29T02:12:02;3.10;;;0.90;;
72951;SDS011;61102;51.956;5.878;2022-12-29T02:14:30;2.80;;;0.90;;
72951;SDS011;61102;51.956;5.878;2022-12-29T02:35:59;2.35;;;0.50;;
72951;SDS011;61102;51.956;5.878;2022-12-29T02:38:46;2.58;;;0.75;;
72951;SDS011;61102;51.956;5.878;2022-12-29T02:41:58;3.38;;;0.80;;
72951;SDS011;61102;51.956;5.878;2022-12-29T02:49:48;1.02;;;0.40;;
72951;SDS011;61102;51.956;5.878;2022-12-29T02:52:24;2.60;;;0.50;;
72951;SDS011;61102;51.956;5.878;2022-12-29T02:54:56;3.25;;;0.57;;
72951;SDS011;61102;51.956;5.878;2022-12-29T02:59:53;4.38;;;0.45;;
72951;SDS011;61102;51.956;5.878;2022-12-29T03:02:32;2.53;;;0.45;;
72951;SDS011;61102;51.956;5.878;2022-12-29T03:13:27;4.40;;;0.60;;
72951;SDS011;61102;51.956;5.878;2022-12-29T03:16:45;2.95;;;0.40;;
72951;SDS011;61102;51.956;5.878;2022-12-29T03:19:37;1.70;;;0.40;;
72951;SDS011;61102;51.956;5.878;2022-12-29T03:22:08;3.78;;;0.40;;
72951;SDS011;61102;51.956;5.878;2022-12-29T03:25:18;2.72;;;0.55;;
72951;SDS011;61102;51.956;5.878;2022-12-29T03:27:57;2.42;;;0.57;;
72951;SDS011;61102;51.956;5.878;2022-12-29T03:30:28;3.10;;;0.40;;
72951;SDS011;61102;51.956;5.878;2022-12-29T03:32:59;2.22;;;0.28;;
72951;SDS011;61102;51.956;5.878;2022-12-29T03:35:31;1.98;;;0.30;;
72951;SDS011;61102;51.956;5.878;2022-12-29T03:38:06;1.75;;;0.20;;
72951;SDS011;61102;51.956;5.878;2022-12-29T03:40:37;3.42;;;0.40;;
72951;SDS011;61102;51.956;5.878;2022-12-29T03:43:05;3.30;;;0.50;;
72951;SDS011;61102;51.956;5.878;2022-12-29T03:45:34;1.98;;;0.50;;
72951;SDS011;61102;51.956;5.878;2022-12-29T03:48:00;2.83;;;0.50;;
72951;SDS011;61102;51.956;5.878;2022-12-29T03:52:54;5.00;;;0.82;;
72951;SDS011;61102;51.956;5.878;2022-12-29T03:55:20;2.17;;;0.60;;
72951;SDS011;61102;51.956;5.878;2022-12-29T03:57:46;2.85;;;0.35;;
72951;SDS011;61102;51.956;5.878;2022-12-29T04:00:18;1.92;;;0.32;;
72951;SDS011;61102;51.956;5.878;2022-12-29T04:02:48;2.75;;;0.30;;
72951;SDS011;61102;51.956;5.878;2022-12-29T04:05:19;3.67;;;0.50;;
72951;SDS011;61102;51.956;5.878;2022-12-29T04:07:47;1.63;;;0.32;;
72951;SDS011;61102;51.956;5.878;2022-12-29T04:10:14;5.57;;;0.60;;
72951;SDS011;61102;51.956;5.878;2022-12-29T04:12:40;3.67;;;0.30;;
72951;SDS011;61102;51.956;5.878;2022-12-29T04:15:08;2.05;;;0.40;;
72951;SDS011;61102;51.956;5.878;2022-12-29T04:17:35;3.53;;;0.45;;
72951;SDS011;61102;51.956;5.878;2022-12-29T04:20:03;2.22;;;0.30;;
72951;SDS011;61102;51.956;5.878;2022-12-29T04:22:49;5.70;;;0.50;;
72951;SDS011;61102;51.956;5.878;2022-12-29T04:27:49;3.95;;;0.50;;
72951;SDS011;61102;51.956;5.878;2022-12-29T04:30:33;5.65;;;0.63;;
72951;SDS011;61102;51.956;5.878;2022-12-29T04:33:05;1.10;;;0.28;;
72951;SDS011;61102;51.956;5.878;2022-12-29T04:35:32;4.18;;;0.50;;
72951;SDS011;61102;51.956;5.878;2022-12-29T04:37:58;1.75;;;0.40;;
72951;SDS011;61102;51.956;5.878;2022-12-29T04:40:25;2.83;;;0.30;;
72951;SDS011;61102;51.956;5.878;2022-12-29T04:42:51;2.53;;;0.40;;
72951;SDS011;61102;51.956;5.878;2022-12-29T04:45:20;4.40;;;0.65;;
72951;SDS011;61102;51.956;5.878;2022-12-29T04:48:06;2.10;;;0.30;;
72951;SDS011;61102;51.956;5.878;2022-12-29T04:50:50;3.17;;;0.47;;
72951;SDS011;61102;51.956;5.878;2022-12-29T04:53:18;3.63;;;0.60;;
72951;SDS011;61102;51.956;5.878;2022-12-29T04:55:48;2.63;;;0.50;;
72951;SDS011;61102;51.956;5.878;2022-12-29T04:58:17;4.95;;;0.52;;
72951;SDS011;61102;51.956;5.878;2022-12-29T05:00:46;3.47;;;0.40;;
72951;SDS011;61102;51.956;5.878;2022-12-29T05:03:12;5.57;;;0.50;;
72951;SDS011;61102;51.956;5.878;2022-12-29T05:05:41;3.15;;;0.47;;
72951;SDS011;61102;51.956;5.878;2022-12-29T05:08:08;2.85;;;0.40;;
72951;SDS011;61102;51.956;5.878;2022-12-29T05:10:34;2.83;;;0.35;;
72951;SDS011;61102;51.956;5.878;2022-12-29T05:13:07;1.95;;;0.30;;
72951;SDS011;61102;51.956;5.878;2022-12-29T05:15:34;2.88;;;0.40;;
72951;SDS011;61102;51.956;5.878;2022-12-29T05:18:00;2.35;;;0.30;;
72951;SDS011;61102;51.956;5.878;2022-12-29T05:20:27;3.00;;;0.40;;
72951;SDS011;61102;51.956;5.878;2022-12-29T05:22:56;1.92;;;0.32;;
72951;SDS011;61102;51.956;5.878;2022-12-29T05:25:24;2.47;;;0.38;;
72951;SDS011;61102;51.956;5.878;2022-12-29T05:28:05;4.00;;;0.63;;
72951;SDS011;61102;51.956;5.878;2022-12-29T05:30:42;5.28;;;0.52;;
72951;SDS011;61102;51.956;5.878;2022-12-29T05:33:09;3.08;;;0.40;;
72951;SDS011;61102;51.956;5.878;2022-12-29T05:35:38;1.95;;;0.38;;
72951;SDS011;61102;51.956;5.878;2022-12-29T05:38:05;3.58;;;0.40;;
72951;SDS011;61102;51.956;5.878;2022-12-29T05:40:32;3.05;;;0.40;;
72951;SDS011;61102;51.956;5.878;2022-12-29T05:43:02;3.70;;;0.40;;
72951;SDS011;61102;51.956;5.878;2022-12-29T05:45:38;3.13;;;0.52;;
72951;SDS011;61102;51.956;5.878;2022-12-29T05:48:23;3.05;;;0.43;;
72951;SDS011;61102;51.956;5.878;2022-12-29T05:51:22;2.58;;;0.40;;
72951;SDS011;61102;51.956;5.878;2022-12-29T05:53:51;2.90;;;0.40;;
72951;SDS011;61102;51.956;5.878;2022-12-29T05:56:17;3.13;;;0.50;;
72951;SDS011;61102;51.956;5.878;2022-12-29T05:58:50;5.03;;;0.70;;
72951;SDS011;61102;51.956;5.878;2022-12-29T06:01:16;5.38;;;0.77;;
72951;SDS011;61102;51.956;5.878;2022-12-29T06:03:42;4.60;;;0.60;;
72951;SDS011;61102;51.956;5.878;2022-12-29T06:06:09;4.72;;;0.80;;
72951;SDS011;61102;51.956;5.878;2022-12-29T06:08:36;7.57;;;0.80;;
72951;SDS011;61102;51.956;5.878;2022-12-29T06:11:02;5.75;;;0.82;;
72951;SDS011;61102;51.956;5.878;2022-12-29T06:13:29;7.28;;;0.60;;
72951;SDS011;61102;51.956;5.878;2022-12-29T06:15:57;7.47;;;0.90;;
72951;SDS011;61102;51.956;5.878;2022-12-29T06:18:25;3.72;;;0.55;;
72951;SDS011;61102;51.956;5.878;2022-12-29T06:20:51;4.13;;;0.50;;
72951;SDS011;61102;51.956;5.878;2022-12-29T06:23:18;3.15;;;0.50;;
72951;SDS011;61102;51.956;5.878;2022-12-29T06:25:46;5.35;;;0.60;;
72951;SDS011;61102;51.956;5.878;2022-12-29T06:28:12;4.80;;;0.50;;
72951;SDS011;61102;51.956;5.878;2022-12-29T06:30:39;5.45;;;0.63;;
72951;SDS011;61102;51.956;5.878;2022-12-29T06:33:06;5.00;;;0.50;;
72951;SDS011;61102;51.956;5.878;2022-12-29T06:35:34;5.60;;;0.63;;
72951;SDS011;61102;51.956;5.878;2022-12-29T06:38:00;6.03;;;0.82;;
72951;SDS011;61102;51.956;5.878;2022-12-29T06:40:26;5.18;;;0.45;;
72951;SDS011;61102;51.956;5.878;2022-12-29T06:43:11;3.75;;;0.40;;
72951;SDS011;61102;51.956;5.878;2022-12-29T06:45:52;4.80;;;0.50;;
72951;SDS011;61102;51.956;5.878;2022-12-29T06:48:19;6.40;;;0.85;;
72951;SDS011;61102;51.956;5.878;2022-12-29T06:50:45;5.60;;;0.68;;
72951;SDS011;61102;51.956;5.878;2022-12-29T06:53:11;8.00;;;0.73;;
72951;SDS011;61102;51.956;5.878;2022-12-29T06:55:38;6.20;;;0.73;;
72951;SDS011;61102;51.956;5.878;2022-12-29T06:58:05;9.57;;;0.77;;
72951;SDS011;61102;51.956;5.878;2022-12-29T07:00:31;5.32;;;0.68;;
72951;SDS011;61102;51.956;5.878;2022-12-29T07:02:57;4.65;;;0.50;;
72951;SDS011;61102;51.956;5.878;2022-12-29T07:05:24;8.55;;;0.98;;
72951;SDS011;61102;51.956;5.878;2022-12-29T07:07:53;5.85;;;1.33;;
72951;SDS011;61102;51.956;5.878;2022-12-29T07:10:20;3.90;;;0.55;;
72951;SDS011;61102;51.956;5.878;2022-12-29T07:12:47;7.20;;;0.70;;
72951;SDS011;61102;51.956;5.878;2022-12-29T07:15:13;4.07;;;0.47;;
72951;SDS011;61102;51.956;5.878;2022-12-29T07:17:40;5.88;;;0.60;;
72951;SDS011;61102;51.956;5.878;2022-12-29T07:20:06;7.95;;;0.80;;
72951;SDS011;61102;51.956;5.878;2022-12-29T07:25:00;8.30;;;0.70;;
72951;SDS011;61102;51.956;5.878;2022-12-29T07:27:26;3.67;;;0.50;;
72951;SDS011;61102;51.956;5.878;2022-12-29T07:29:52;4.78;;;0.90;;
72951;SDS011;61102;51.956;5.878;2022-12-29T07:32:19;5.50;;;0.68;;
72951;SDS011;61102;51.956;5.878;2022-12-29T07:34:45;4.07;;;0.52;;
72951;SDS011;61102;51.956;5.878;2022-12-29T07:37:14;7.97;;;1.02;;
72951;SDS011;61102;51.956;5.878;2022-12-29T07:39:41;5.95;;;0.52;;
72951;SDS011;61102;51.956;5.878;2022-12-29T07:42:07;7.60;;;0.80;;
72951;SDS011;61102;51.956;5.878;2022-12-29T07:44:41;6.80;;;0.70;;
72951;SDS011;61102;51.956;5.878;2022-12-29T07:47:34;4.25;;;0.50;;
72951;SDS011;61102;51.956;5.878;2022-12-29T07:50:00;7.05;;;0.70;;
72951;SDS011;61102;51.956;5.878;2022-12-29T07:52:26;6.45;;;0.68;;
72951;SDS011;61102;51.956;5.878;2022-12-29T07:54:52;8.23;;;0.70;;
72951;SDS011;61102;51.956;5.878;2022-12-29T07:57:19;6.88;;;0.80;;
72951;SDS011;61102;51.956;5.878;2022-12-29T07:59:45;7.57;;;0.80;;
72951;SDS011;61102;51.956;5.878;2022-12-29T08:02:11;7.07;;;0.77;;
72951;SDS011;61102;51.956;5.878;2022-12-29T08:04:37;9.98;;;0.90;;
72951;SDS011;61102;51.956;5.878;2022-12-29T08:07:04;5.80;;;0.50;;
72951;SDS011;61102;51.956;5.878;2022-12-29T08:09:30;11.95;;;0.75;;
72951;SDS011;61102;51.956;5.878;2022-12-29T08:11:56;9.88;;;0.93;;
72951;SDS011;61102;51.956;5.878;2022-12-29T08:14:22;7.75;;;1.00;;
72951;SDS011;61102;51.956;5.878;2022-12-29T08:16:48;6.97;;;0.60;;
72951;SDS011;61102;51.956;5.878;2022-12-29T08:19:15;6.97;;;1.20;;
72951;SDS011;61102;51.956;5.878;2022-12-29T08:21:41;6.20;;;0.80;;
72951;SDS011;61102;51.956;5.878;2022-12-29T08:24:07;5.10;;;0.47;;
72951;SDS011;61102;51.956;5.878;2022-12-29T08:26:34;6.55;;;0.80;;
72951;SDS011;61102;51.956;5.878;2022-12-29T08:29:00;9.05;;;0.98;;
72951;SDS011;61102;51.956;5.878;2022-12-29T08:31:26;4.05;;;0.70;;
72951;SDS011;61102;51.956;5.878;2022-12-29T08:34:05;6.13;;;0.60;;
72951;SDS011;61102;51.956;5.878;2022-12-29T08:36:31;8.25;;;0.70;;
72951;SDS011;61102;51.956;5.878;2022-12-29T08:38:57;7.25;;;0.73;;
72951;SDS011;61102;51.956;5.878;2022-12-29T08:41:24;7.97;;;0.75;;
72951;SDS011;61102;51.956;5.878;2022-12-29T08:43:50;5.22;;;0.88;;
72951;SDS011;61102;51.956;5.878;2022-12-29T08:46:16;3.63;;;0.50;;
72951;SDS011;61102;51.956;5.878;2022-12-29T08:48:42;7.47;;;0.90;;
72951;SDS011;61102;51.956;5.878;2022-12-29T08:51:09;8.10;;;1.00;;
72951;SDS011;61102;51.956;5.878;2022-12-29T08:53:35;7.93;;;1.08;;
72951;SDS011;61102;51.956;5.878;2022-12-29T08:56:01;12.23;;;1.30;;
72951;SDS011;61102;51.956;5.878;2022-12-29T08:58:28;7.85;;;0.90;;
72951;SDS011;61102;51.956;5.878;2022-12-29T09:00:55;9.25;;;0.90;;
72951;SDS011;61102;51.956;5.878;2022-12-29T09:05:52;9.85;;;1.25;;
72951;SDS011;61102;51.956;5.878;2022-12-29T09:08:19;8.45;;;0.82;;
72951;SDS011;61102;51.956;5.878;2022-12-29T09:10:46;6.22;;;0.82;;
72951;SDS011;61102;51.956;5.878;2022-12-29T09:13:14;7.25;;;0.90;;
72951;SDS011;61102;51.956;5.878;2022-12-29T09:15:41;7.38;;;1.05;;
72951;SDS011;61102;51.956;5.878;2022-12-29T09:18:09;6.80;;;0.95;;
72951;SDS011;61102;51.956;5.878;2022-12-29T09:20:36;10.05;;;1.33;;
72951;SDS011;61102;51.956;5.878;2022-12-29T09:23:03;10.35;;;0.90;;
72951;SDS011;61102;51.956;5.878;2022-12-29T09:25:31;6.32;;;0.93;;
72951;SDS011;61102;51.956;5.878;2022-12-29T09:28:05;6.60;;;0.60;;
72951;SDS011;61102;51.956;5.878;2022-12-29T09:30:33;8.65;;;0.90;;
72951;SDS011;61102;51.956;5.878;2022-12-29T09:32:59;9.32;;;1.00;;
72951;SDS011;61102;51.956;5.878;2022-12-29T09:35:25;8.98;;;0.90;;
72951;SDS011;61102;51.956;5.878;2022-12-29T09:37:52;9.40;;;0.88;;
72951;SDS011;61102;51.956;5.878;2022-12-29T09:40:23;10.20;;;1.00;;
72951;SDS011;61102;51.956;5.878;2022-12-29T09:45:40;19.27;;;1.13;;
72951;SDS011;61102;51.956;5.878;2022-12-29T09:48:14;8.80;;;0.75;;
72951;SDS011;61102;51.956;5.878;2022-12-29T09:50:58;7.25;;;0.90;;
72951;SDS011;61102;51.956;5.878;2022-12-29T09:56:15;9.30;;;0.73;;
72951;SDS011;61102;51.956;5.878;2022-12-29T10:01:58;8.48;;;1.08;;
72951;SDS011;61102;51.956;5.878;2022-12-29T10:04:30;10.77;;;1.00;;
72951;SDS011;61102;51.956;5.878;2022-12-29T10:07:04;10.82;;;1.15;;
72951;SDS011;61102;51.956;5.878;2022-12-29T10:09:45;7.07;;;0.90;;
72951;SDS011;61102;51.956;5.878;2022-12-29T10:15:38;6.55;;;1.33;;
72951;SDS011;61102;51.956;5.878;2022-12-29T10:21:16;6.70;;;0.73;;
72951;SDS011;61102;51.956;5.878;2022-12-29T10:23:45;10.38;;;1.33;;
72951;SDS011;61102;51.956;5.878;2022-12-29T10:26:16;6.03;;;0.55;;
72951;SDS011;61102;51.956;5.878;2022-12-29T10:31:21;5.00;;;0.70;;
72951;SDS011;61102;51.956;5.878;2022-12-29T10:33:56;7.22;;;0.93;;
72951;SDS011;61102;51.956;5.878;2022-12-29T10:36:35;5.95;;;0.80;;
72951;SDS011;61102;51.956;5.878;2022-12-29T10:44:55;7.20;;;1.30;;
72951;SDS011;61102;51.956;5.878;2022-12-29T10:47:25;6.22;;;0.68;;
72951;SDS011;61102;51.956;5.878;2022-12-29T10:49:54;6.50;;;0.77;;
72951;SDS011;61102;51.956;5.878;2022-12-29T10:52:24;5.72;;;0.60;;
72951;SDS011;61102;51.956;5.878;2022-12-29T10:57:35;5.10;;;0.70;;
72951;SDS011;61102;51.956;5.878;2022-12-29T11:00:10;4.97;;;0.70;;
72951;SDS011;61102;51.956;5.878;2022-12-29T11:08:08;7.22;;;0.90;;
72951;SDS011;61102;51.956;5.878;2022-12-29T11:10:38;7.68;;;1.00;;
72951;SDS011;61102;51.956;5.878;2022-12-29T11:13:14;6.75;;;0.90;;
72951;SDS011;61102;51.956;5.878;2022-12-29T11:15:49;7.32;;;0.90;;
72951;SDS011;61102;51.956;5.878;2022-12-29T11:18:18;5.53;;;0.80;;
72951;SDS011;61102;51.956;5.878;2022-12-29T11:20:50;8.98;;;1.00;;
72951;SDS011;61102;51.956;5.878;2022-12-29T11:26:13;8.93;;;1.25;;
72951;SDS011;61102;51.956;5.878;2022-12-29T11:28:42;7.53;;;1.10;;
72951;SDS011;61102;51.956;5.878;2022-12-29T11:31:10;9.20;;;1.10;;
72951;SDS011;61102;51.956;5.878;2022-12-29T11:33:42;8.23;;;1.52;;
72951;SDS011;61102;51.956;5.878;2022-12-29T11:36:17;8.63;;;1.42;;
72951;SDS011;61102;51.956;5.878;2022-12-29T11:38:49;10.98;;;1.35;;
72951;SDS011;61102;51.956;5.878;2022-12-29T11:41:21;9.32;;;1.25;;
72951;SDS011;61102;51.956;5.878;2022-12-29T11:43:49;8.77;;;1.10;;
72951;SDS011;61102;51.956;5.878;2022-12-29T11:46:18;6.47;;;1.23;;
72951;SDS011;61102;51.956;5.878;2022-12-29T11:48:48;10.07;;;1.40;;
72951;SDS011;61102;51.956;5.878;2022-12-29T11:51:25;10.73;;;1.30;;
72951;SDS011;61102;51.956;5.878;2022-12-29T11:54:02;8.98;;;1.58;;
72951;SDS011;61102;51.956;5.878;2022-12-29T12:04:48;12.27;;;1.75;;
72951;SDS011;61102;51.956;5.878;2022-12-29T12:07:18;12.65;;;1.95;;
72951;SDS011;61102;51.956;5.878;2022-12-29T12:09:59;17.15;;;1.65;;
72951;SDS011;61102;51.956;5.878;2022-12-29T12:12:40;11.55;;;1.50;;
72951;SDS011;61102;51.956;5.878;2022-12-29T12:15:19;7.15;;;1.10;;
72951;SDS011;61102;51.956;5.878;2022-12-29T12:17:59;10.77;;;1.50;;
72951;SDS011;61102;51.956;5.878;2022-12-29T12:20:36;10.77;;;1.40;;
72951;SDS011;61102;51.956;5.878;2022-12-29T12:26:11;7.65;;;1.20;;
72951;SDS011;61102;51.956;5.878;2022-12-29T12:31:27;8.88;;;1.33;;
72951;SDS011;61102;51.956;5.878;2022-12-29T12:34:12;8.95;;;1.42;;
72951;SDS011;61102;51.956;5.878;2022-12-29T12:37:05;13.35;;;1.60;;
72951;SDS011;61102;51.956;5.878;2022-12-29T12:46:19;10.57;;;1.50;;
72951;SDS011;61102;51.956;5.878;2022-12-29T12:51:37;8.77;;;1.55;;
72951;SDS011;61102;51.956;5.878;2022-12-29T12:57:03;7.53;;;0.95;;
72951;SDS011;61102;51.956;5.878;2022-12-29T13:02:26;8.18;;;1.15;;
72951;SDS011;61102;51.956;5.878;2022-12-29T13:07:52;8.90;;;1.33;;
72951;SDS011;61102;51.956;5.878;2022-12-29T13:16:12;6.72;;;1.10;;
72951;SDS011;61102;51.956;5.878;2022-12-29T13:30:09;8.05;;;1.00;;
72951;SDS011;61102;51.956;5.878;2022-12-29T13:35:54;8.00;;;1.25;;
72951;SDS011;61102;51.956;5.878;2022-12-29T13:38:55;10.32;;;1.23;;
72951;SDS011;61102;51.956;5.878;2022-12-29T13:41:27;8.73;;;1.40;;
72951;SDS011;61102;51.956;5.878;2022-12-29T13:44:16;6.90;;;1.10;;
72951;SDS011;61102;51.956;5.878;2022-12-29T13:46:47;6.15;;;0.80;;
72951;SDS011;61102;51.956;5.878;2022-12-29T13:49:18;5.90;;;1.00;;
72951;SDS011;61102;51.956;5.878;2022-12-29T13:51:49;10.43;;;1.17;;
72951;SDS011;61102;51.956;5.878;2022-12-29T14:07:48;7.50;;;1.23;;
72951;SDS011;61102;51.956;5.878;2022-12-29T14:10:26;7.20;;;1.00;;
72951;SDS011;61102;51.956;5.878;2022-12-29T14:15:39;7.85;;;1.00;;
72951;SDS011;61102;51.956;5.878;2022-12-29T14:18:17;6.15;;;1.10;;
72951;SDS011;61102;51.956;5.878;2022-12-29T14:21:10;5.10;;;0.93;;
72951;SDS011;61102;51.956;5.878;2022-12-29T14:23:41;9.00;;;1.15;;
72951;SDS011;61102;51.956;5.878;2022-12-29T14:29:00;2.55;;;0.40;;
72951;SDS011;61102;51.956;5.878;2022-12-29T14:32:01;4.47;;;0.57;;
72951;SDS011;61102;51.956;5.878;2022-12-29T14:34:28;2.05;;;0.43;;
72951;SDS011;61102;51.956;5.878;2022-12-29T14:37:02;5.20;;;0.75;;
72951;SDS011;61102;51.956;5.878;2022-12-29T14:44:57;13.43;;;4.72;;
72951;SDS011;61102;51.956;5.878;2022-12-29T14:49:55;3.92;;;0.90;;
72951;SDS011;61102;51.956;5.878;2022-12-29T14:54:54;7.80;;;0.80;;
72951;SDS011;61102;51.956;5.878;2022-12-29T14:57:39;6.47;;;0.80;;
72951;SDS011;61102;51.956;5.878;2022-12-29T15:02:50;3.83;;;0.60;;
72951;SDS011;61102;51.956;5.878;2022-12-29T15:05:32;5.72;;;0.90;;
72951;SDS011;61102;51.956;5.878;2022-12-29T15:08:06;5.72;;;0.60;;
72951;SDS011;61102;51.956;5.878;2022-12-29T15:10:38;6.00;;;0.60;;
72951;SDS011;61102;51.956;5.878;2022-12-29T15:13:13;5.60;;;0.70;;
72951;SDS011;61102;51.956;5.878;2022-12-29T15:15:42;7.20;;;0.90;;
72951;SDS011;61102;51.956;5.878;2022-12-29T15:18:22;7.32;;;1.25;;
72951;SDS011;61102;51.956;5.878;2022-12-29T15:20:53;5.88;;;0.85;;
72951;SDS011;61102;51.956;5.878;2022-12-29T15:23:22;10.18;;;1.17;;
72951;SDS011;61102;51.956;5.878;2022-12-29T15:25:59;6.53;;;1.08;;
72951;SDS011;61102;51.956;5.878;2022-12-29T15:28:28;4.75;;;1.20;;
72951;SDS011;61102;51.956;5.878;2022-12-29T15:31:14;3.90;;;0.90;;
72951;SDS011;61102;51.956;5.878;2022-12-29T15:33:43;5.70;;;0.80;;
72951;SDS011;61102;51.956;5.878;2022-12-29T15:36:14;9.38;;;0.90;;
72951;SDS011;61102;51.956;5.878;2022-12-29T15:38:47;6.60;;;1.00;;
72951;SDS011;61102;51.956;5.878;2022-12-29T15:41:34;4.95;;;0.80;;
72951;SDS011;61102;51.956;5.878;2022-12-29T15:44:35;8.20;;;0.90;;
72951;SDS011;61102;51.956;5.878;2022-12-29T15:47:04;7.88;;;0.90;;
72951;SDS011;61102;51.956;5.878;2022-12-29T15:49:32;8.00;;;1.33;;
72951;SDS011;61102;51.956;5.878;2022-12-29T15:51:59;7.10;;;0.93;;
72951;SDS011;61102;51.956;5.878;2022-12-29T15:54:26;5.13;;;0.77;;
72951;SDS011;61102;51.956;5.878;2022-12-29T15:56:56;4.60;;;0.85;;
72951;SDS011;61102;51.956;5.878;2022-12-29T15:59:23;4.68;;;0.70;;
72951;SDS011;61102;51.956;5.878;2022-12-29T16:01:58;6.20;;;1.15;;
72951;SDS011;61102;51.956;5.878;2022-12-29T16:04:27;6.28;;;1.08;;
72951;SDS011;61102;51.956;5.878;2022-12-29T16:07:05;8.57;;;0.90;;
72951;SDS011;61102;51.956;5.878;2022-12-29T16:09:46;5.47;;;1.10;;
72951;SDS011;61102;51.956;5.878;2022-12-29T16:12:16;5.30;;;0.80;;
72951;SDS011;61102;51.956;5.878;2022-12-29T16:14:46;5.88;;;0.95;;
72951;SDS011;61102;51.956;5.878;2022-12-29T16:17:20;5.40;;;0.73;;
72951;SDS011;61102;51.956;5.878;2022-12-29T16:19:59;6.22;;;0.90;;
72951;SDS011;61102;51.956;5.878;2022-12-29T16:24:57;4.50;;;0.70;;
72951;SDS011;61102;51.956;5.878;2022-12-29T16:30:03;5.82;;;1.00;;
72951;SDS011;61102;51.956;5.878;2022-12-29T16:32:50;6.22;;;0.80;;
72951;SDS011;61102;51.956;5.878;2022-12-29T16:35:22;5.65;;;0.90;;
72951;SDS011;61102;51.956;5.878;2022-12-29T16:38:12;6.13;;;1.00;;
72951;SDS011;61102;51.956;5.878;2022-12-29T16:43:29;6.63;;;0.90;;
72951;SDS011;61102;51.956;5.878;2022-12-29T16:48:27;6.97;;;1.00;;
72951;SDS011;61102;51.956;5.878;2022-12-29T16:51:13;7.30;;;0.90;;
72951;SDS011;61102;51.956;5.878;2022-12-29T16:53:47;4.45;;;0.50;;
72951;SDS011;61102;51.956;5.878;2022-12-29T16:58:47;6.18;;;0.73;;
72951;SDS011;61102;51.956;5.878;2022-12-29T17:01:14;6.40;;;0.60;;
72951;SDS011;61102;51.956;5.878;2022-12-29T17:03:54;5.32;;;0.70;;
72951;SDS011;61102;51.956;5.878;2022-12-29T17:06:24;3.90;;;0.80;;
72951;SDS011;61102;51.956;5.878;2022-12-29T17:08:51;4.95;;;1.00;;
72951;SDS011;61102;51.956;5.878;2022-12-29T17:11:22;7.93;;;0.98;;
72951;SDS011;61102;51.956;5.878;2022-12-29T17:14:17;3.97;;;0.70;;
72951;SDS011;61102;51.956;5.878;2022-12-29T17:17:37;3.40;;;0.50;;
72951;SDS011;61102;51.956;5.878;2022-12-29T17:20:13;5.28;;;0.88;;
72951;SDS011;61102;51.956;5.878;2022-12-29T17:22:48;8.38;;;1.13;;
72951;SDS011;61102;51.956;5.878;2022-12-29T17:25:18;6.55;;;0.88;;
72951;SDS011;61102;51.956;5.878;2022-12-29T17:27:47;6.32;;;1.17;;
72951;SDS011;61102;51.956;5.878;2022-12-29T17:30:19;4.90;;;0.70;;
72951;SDS011;61102;51.956;5.878;2022-12-29T17:32:51;3.78;;;0.65;;
72951;SDS011;61102;51.956;5.878;2022-12-29T17:35:19;4.22;;;0.70;;
72951;SDS011;61102;51.956;5.878;2022-12-29T17:37:47;4.85;;;0.70;;
72951;SDS011;61102;51.956;5.878;2022-12-29T17:40:18;7.40;;;0.80;;
72951;SDS011;61102;51.956;5.878;2022-12-29T17:42:47;9.18;;;1.20;;
72951;SDS011;61102;51.956;5.878;2022-12-29T17:45:16;6.50;;;0.80;;
72951;SDS011;61102;51.956;5.878;2022-12-29T17:47:48;6.60;;;0.60;;
72951;SDS011;61102;51.956;5.878;2022-12-29T17:50:16;7.55;;;2.20;;
72951;SDS011;61102;51.956;5.878;2022-12-29T17:52:45;5.13;;;0.60;;
72951;SDS011;61102;51.956;5.878;2022-12-29T17:55:17;5.18;;;0.50;;
72951;SDS011;61102;51.956;5.878;2022-12-29T18:00:14;2.33;;;0.40;;
72951;SDS011;61102;51.956;5.878;2022-12-29T18:02:45;4.95;;;0.63;;
72951;SDS011;61102;51.956;5.878;2022-12-29T18:05:29;9.73;;;0.98;;
72951;SDS011;61102;51.956;5.878;2022-12-29T18:07:57;4.63;;;0.65;;
72951;SDS011;61102;51.956;5.878;2022-12-29T18:10:25;6.97;;;0.88;;
72951;SDS011;61102;51.956;5.878;2022-12-29T18:12:53;4.90;;;0.70;;
72951;SDS011;61102;51.956;5.878;2022-12-29T18:15:24;5.88;;;0.68;;
72951;SDS011;61102;51.956;5.878;2022-12-29T18:17:57;4.53;;;0.50;;
72951;SDS011;61102;51.956;5.878;2022-12-29T18:20:27;3.67;;;0.50;;